sensor_id;sensor_type;location;lat;lon;timestamp;temperature;humidity
53962;DHT22;39868;53.398;6.564;2022-09-09T00:04:32;18.10;80.00
53962;DHT22;39868;53.398;6.564;2022-09-09T00:07:03;18.10;80.00
53962;DHT22;39868;53.398;6.564;2022-09-09T00:09:32;18.10;80.00
53962;DHT22;39868;53.398;6.564;2022-09-09T00:15:14;18.10;80.00
53962;DHT22;39868;53.398;6.564;2022-09-09T00:20:12;18.10;80.00
53962;DHT22;39868;53.398;6.564;2022-09-09T00:22:41;18.10;80.00
53962;DHT22;39868;53.398;6.564;2022-09-09T00:27:41;18.00;80.00
53962;DHT22;39868;53.398;6.564;2022-09-09T00:30:13;18.00;80.00
53962;DHT22;39868;53.398;6.564;2022-09-09T00:32:43;17.90;79.90
53962;DHT22;39868;53.398;6.564;2022-09-09T00:38:00;18.00;80.00
53962;DHT22;39868;53.398;6.564;2022-09-09T00:40:34;17.90;80.00
53962;DHT22;39868;53.398;6.564;2022-09-09T00:48:10;17.90;80.00
53962;DHT22;39868;53.398;6.564;2022-09-09T00:55:48;17.80;80.00
53962;DHT22;39868;53.398;6.564;2022-09-09T00:58:15;17.80;80.00
53962;DHT22;39868;53.398;6.564;2022-09-09T01:00:53;17.80;80.00
53962;DHT22;39868;53.398;6.564;2022-09-09T01:06:16;17.80;80.00
53962;DHT22;39868;53.398;6.564;2022-09-09T01:08:51;17.80;80.00
53962;DHT22;39868;53.398;6.564;2022-09-09T01:11:24;17.80;80.00
53962;DHT22;39868;53.398;6.564;2022-09-09T01:14:01;17.80;79.90
53962;DHT22;39868;53.398;6.564;2022-09-09T01:16:33;17.70;79.80
53962;DHT22;39868;53.398;6.564;2022-09-09T01:19:01;17.70;79.80
53962;DHT22;39868;53.398;6.564;2022-09-09T01:27:12;17.60;79.70
53962;DHT22;39868;53.398;6.564;2022-09-09T01:29:40;17.50;79.80
53962;DHT22;39868;53.398;6.564;2022-09-09T01:34:54;17.50;79.70
53962;DHT22;39868;53.398;6.564;2022-09-09T01:37:22;17.50;79.80
53962;DHT22;39868;53.398;6.564;2022-09-09T01:39:49;17.40;79.70
53962;DHT22;39868;53.398;6.564;2022-09-09T01:42:17;17.40;79.70
53962;DHT22;39868;53.398;6.564;2022-09-09T01:44:45;17.40;79.70
53962;DHT22;39868;53.398;6.564;2022-09-09T01:47:14;17.30;79.60
53962;DHT22;39868;53.398;6.564;2022-09-09T01:50:04;17.30;79.70
53962;DHT22;39868;53.398;6.564;2022-09-09T01:52:33;17.30;79.70
53962;DHT22;39868;53.398;6.564;2022-09-09T01:55:07;17.30;79.70
53962;DHT22;39868;53.398;6.564;2022-09-09T02:00:25;17.20;79.70
53962;DHT22;39868;53.398;6.564;2022-09-09T02:05:37;17.10;79.70
53962;DHT22;39868;53.398;6.564;2022-09-09T02:11:06;17.10;79.70
53962;DHT22;39868;53.398;6.564;2022-09-09T02:13:43;17.10;79.70
53962;DHT22;39868;53.398;6.564;2022-09-09T02:21:31;17.00;79.70
53962;DHT22;39868;53.398;6.564;2022-09-09T02:23:59;17.00;79.70
53962;DHT22;39868;53.398;6.564;2022-09-09T02:26:29;16.90;79.70
53962;DHT22;39868;53.398;6.564;2022-09-09T02:29:03;16.90;79.70
53962;DHT22;39868;53.398;6.564;2022-09-09T02:31:33;16.90;79.70
53962;DHT22;39868;53.398;6.564;2022-09-09T02:34:06;16.90;79.80
53962;DHT22;39868;53.398;6.564;2022-09-09T02:36:38;16.90;79.80
53962;DHT22;39868;53.398;6.564;2022-09-09T02:39:07;16.90;79.80
53962;DHT22;39868;53.398;6.564;2022-09-09T02:41:36;16.90;79.90
53962;DHT22;39868;53.398;6.564;2022-09-09T02:44:05;16.90;79.90
53962;DHT22;39868;53.398;6.564;2022-09-09T02:52:08;16.90;80.00
53962;DHT22;39868;53.398;6.564;2022-09-09T02:54:42;16.90;80.00
53962;DHT22;39868;53.398;6.564;2022-09-09T02:57:13;16.90;80.00
53962;DHT22;39868;53.398;6.564;2022-09-09T02:59:46;16.90;80.00
53962;DHT22;39868;53.398;6.564;2022-09-09T03:02:14;16.90;80.00
53962;DHT22;39868;53.398;6.564;2022-09-09T03:04:45;16.90;80.00
53962;DHT22;39868;53.398;6.564;2022-09-09T03:07:18;16.90;80.00
53962;DHT22;39868;53.398;6.564;2022-09-09T03:09:47;16.90;80.00
53962;DHT22;39868;53.398;6.564;2022-09-09T03:12:16;16.90;80.00
53962;DHT22;39868;53.398;6.564;2022-09-09T03:14:43;16.90;80.00
53962;DHT22;39868;53.398;6.564;2022-09-09T03:17:13;16.80;80.00
53962;DHT22;39868;53.398;6.564;2022-09-09T03:19:47;16.90;80.10
53962;DHT22;39868;53.398;6.564;2022-09-09T03:22:16;16.90;80.10
53962;DHT22;39868;53.398;6.564;2022-09-09T03:24:45;16.90;80.10
53962;DHT22;39868;53.398;6.564;2022-09-09T03:27:14;16.90;80.20
53962;DHT22;39868;53.398;6.564;2022-09-09T03:29:42;16.90;80.20
53962;DHT22;39868;53.398;6.564;2022-09-09T03:32:13;16.90;80.30
53962;DHT22;39868;53.398;6.564;2022-09-09T03:34:41;16.90;80.30
53962;DHT22;39868;53.398;6.564;2022-09-09T03:37:11;16.90;80.30
53962;DHT22;39868;53.398;6.564;2022-09-09T03:39:39;17.00;80.30
53962;DHT22;39868;53.398;6.564;2022-09-09T03:42:07;17.00;80.40
53962;DHT22;39868;53.398;6.564;2022-09-09T03:44:35;17.00;80.40
53962;DHT22;39868;53.398;6.564;2022-09-09T03:47:02;17.00;80.40
53962;DHT22;39868;53.398;6.564;2022-09-09T03:49:30;17.00;80.40
53962;DHT22;39868;53.398;6.564;2022-09-09T03:51:57;17.10;80.50
53962;DHT22;39868;53.398;6.564;2022-09-09T03:54:26;17.10;80.50
53962;DHT22;39868;53.398;6.564;2022-09-09T03:56:55;17.10;80.50
53962;DHT22;39868;53.398;6.564;2022-09-09T03:59:23;17.10;80.50
53962;DHT22;39868;53.398;6.564;2022-09-09T04:01:50;17.10;80.50
53962;DHT22;39868;53.398;6.564;2022-09-09T04:04:18;17.20;80.50
53962;DHT22;39868;53.398;6.564;2022-09-09T04:06:47;17.20;80.50
53962;DHT22;39868;53.398;6.564;2022-09-09T04:09:17;17.20;80.50
53962;DHT22;39868;53.398;6.564;2022-09-09T04:11:45;17.20;80.50
53962;DHT22;39868;53.398;6.564;2022-09-09T04:14:14;17.30;80.50
53962;DHT22;39868;53.398;6.564;2022-09-09T04:16:41;17.30;80.50
53962;DHT22;39868;53.398;6.564;2022-09-09T04:19:12;17.30;80.50
53962;DHT22;39868;53.398;6.564;2022-09-09T04:21:42;17.30;80.50
53962;DHT22;39868;53.398;6.564;2022-09-09T04:24:09;17.30;80.50
53962;DHT22;39868;53.398;6.564;2022-09-09T04:26:38;17.30;80.50
53962;DHT22;39868;53.398;6.564;2022-09-09T04:29:06;17.40;80.50
53962;DHT22;39868;53.398;6.564;2022-09-09T04:31:35;17.40;80.50
53962;DHT22;39868;53.398;6.564;2022-09-09T04:34:02;17.40;80.50
53962;DHT22;39868;53.398;6.564;2022-09-09T04:36:32;17.40;80.50
53962;DHT22;39868;53.398;6.564;2022-09-09T04:39:03;17.40;80.40
53962;DHT22;39868;53.398;6.564;2022-09-09T04:41:31;17.40;80.40
53962;DHT22;39868;53.398;6.564;2022-09-09T04:43:59;17.40;80.40
53962;DHT22;39868;53.398;6.564;2022-09-09T04:46:27;17.50;80.50
53962;DHT22;39868;53.398;6.564;2022-09-09T04:48:56;17.50;80.50
53962;DHT22;39868;53.398;6.564;2022-09-09T04:51:27;17.50;80.50
53962;DHT22;39868;53.398;6.564;2022-09-09T04:53:55;17.50;80.50
53962;DHT22;39868;53.398;6.564;2022-09-09T04:56:22;17.50;80.50
53962;DHT22;39868;53.398;6.564;2022-09-09T04:58:53;17.50;80.50
53962;DHT22;39868;53.398;6.564;2022-09-09T05:01:25;17.50;80.50
53962;DHT22;39868;53.398;6.564;2022-09-09T05:04:00;17.50;80.50
53962;DHT22;39868;53.398;6.564;2022-09-09T05:06:29;17.50;80.40
53962;DHT22;39868;53.398;6.564;2022-09-09T05:08:59;17.60;80.50
53962;DHT22;39868;53.398;6.564;2022-09-09T05:11:29;17.60;80.50
53962;DHT22;39868;53.398;6.564;2022-09-09T05:14:05;17.60;80.50
53962;DHT22;39868;53.398;6.564;2022-09-09T05:16:35;17.60;80.50
53962;DHT22;39868;53.398;6.564;2022-09-09T05:19:03;17.60;80.50
53962;DHT22;39868;53.398;6.564;2022-09-09T05:21:51;17.60;80.50
53962;DHT22;39868;53.398;6.564;2022-09-09T05:24:23;17.60;80.60
53962;DHT22;39868;53.398;6.564;2022-09-09T05:26:53;17.70;81.10
53962;DHT22;39868;53.398;6.564;2022-09-09T05:29:23;17.70;80.60
53962;DHT22;39868;53.398;6.564;2022-09-09T05:31:51;17.70;80.60
53962;DHT22;39868;53.398;6.564;2022-09-09T05:34:20;17.70;80.60
53962;DHT22;39868;53.398;6.564;2022-09-09T05:36:49;17.70;80.60
53962;DHT22;39868;53.398;6.564;2022-09-09T05:39:16;17.70;80.60
53962;DHT22;39868;53.398;6.564;2022-09-09T05:41:44;17.70;80.50
53962;DHT22;39868;53.398;6.564;2022-09-09T05:44:11;17.80;80.60
53962;DHT22;39868;53.398;6.564;2022-09-09T05:46:39;17.80;80.60
53962;DHT22;39868;53.398;6.564;2022-09-09T05:49:06;17.80;80.60
53962;DHT22;39868;53.398;6.564;2022-09-09T05:51:35;17.80;80.60
53962;DHT22;39868;53.398;6.564;2022-09-09T05:54:09;17.80;80.50
53962;DHT22;39868;53.398;6.564;2022-09-09T05:56:41;17.80;80.50
53962;DHT22;39868;53.398;6.564;2022-09-09T05:59:09;17.90;80.60
53962;DHT22;39868;53.398;6.564;2022-09-09T06:01:38;17.90;80.60
53962;DHT22;39868;53.398;6.564;2022-09-09T06:04:17;17.90;80.50
53962;DHT22;39868;53.398;6.564;2022-09-09T06:06:45;17.90;80.50
53962;DHT22;39868;53.398;6.564;2022-09-09T06:09:16;17.90;80.50
53962;DHT22;39868;53.398;6.564;2022-09-09T06:11:43;17.90;80.50
53962;DHT22;39868;53.398;6.564;2022-09-09T06:14:12;17.90;80.50
53962;DHT22;39868;53.398;6.564;2022-09-09T06:16:41;17.90;80.50
53962;DHT22;39868;53.398;6.564;2022-09-09T06:19:20;17.90;81.00
53962;DHT22;39868;53.398;6.564;2022-09-09T06:21:48;18.00;80.50
53962;DHT22;39868;53.398;6.564;2022-09-09T06:24:17;17.90;80.40
53962;DHT22;39868;53.398;6.564;2022-09-09T06:26:46;18.00;80.50
53962;DHT22;39868;53.398;6.564;2022-09-09T06:29:23;18.00;80.50
53962;DHT22;39868;53.398;6.564;2022-09-09T06:31:52;18.00;80.50
53962;DHT22;39868;53.398;6.564;2022-09-09T06:34:21;18.00;80.50
53962;DHT22;39868;53.398;6.564;2022-09-09T06:36:53;18.00;80.50
53962;DHT22;39868;53.398;6.564;2022-09-09T06:39:20;18.00;80.50
53962;DHT22;39868;53.398;6.564;2022-09-09T06:41:49;18.00;80.50
53962;DHT22;39868;53.398;6.564;2022-09-09T06:44:46;18.00;80.50
53962;DHT22;39868;53.398;6.564;2022-09-09T06:47:21;18.10;80.50
53962;DHT22;39868;53.398;6.564;2022-09-09T06:49:49;18.10;80.50
53962;DHT22;39868;53.398;6.564;2022-09-09T06:52:17;18.10;80.50
53962;DHT22;39868;53.398;6.564;2022-09-09T06:54:46;18.10;80.50
53962;DHT22;39868;53.398;6.564;2022-09-09T06:57:15;18.10;80.50
53962;DHT22;39868;53.398;6.564;2022-09-09T07:00:04;18.10;80.50
53962;DHT22;39868;53.398;6.564;2022-09-09T07:02:31;18.20;80.60
53962;DHT22;39868;53.398;6.564;2022-09-09T07:04:59;18.20;80.60
53962;DHT22;39868;53.398;6.564;2022-09-09T07:07:27;18.20;80.60
53962;DHT22;39868;53.398;6.564;2022-09-09T07:09:55;18.20;80.50
53962;DHT22;39868;53.398;6.564;2022-09-09T07:12:22;18.20;80.60
53962;DHT22;39868;53.398;6.564;2022-09-09T07:14:55;18.30;80.60
53962;DHT22;39868;53.398;6.564;2022-09-09T07:17:22;18.30;80.60
53962;DHT22;39868;53.398;6.564;2022-09-09T07:19:50;18.30;80.60
53962;DHT22;39868;53.398;6.564;2022-09-09T07:22:17;18.40;80.60
53962;DHT22;39868;53.398;6.564;2022-09-09T07:24:47;18.40;80.60
53962;DHT22;39868;53.398;6.564;2022-09-09T07:27:16;18.40;80.60
53962;DHT22;39868;53.398;6.564;2022-09-09T07:29:43;18.50;80.70
53962;DHT22;39868;53.398;6.564;2022-09-09T07:32:12;18.50;80.70
53962;DHT22;39868;53.398;6.564;2022-09-09T07:34:40;18.50;80.60
53962;DHT22;39868;53.398;6.564;2022-09-09T07:37:07;18.60;80.70
53962;DHT22;39868;53.398;6.564;2022-09-09T07:39:36;18.60;80.70
53962;DHT22;39868;53.398;6.564;2022-09-09T07:42:03;18.70;80.70
53962;DHT22;39868;53.398;6.564;2022-09-09T07:44:31;18.70;80.70
53962;DHT22;39868;53.398;6.564;2022-09-09T07:47:09;18.70;80.70
53962;DHT22;39868;53.398;6.564;2022-09-09T07:49:44;18.80;80.70
53962;DHT22;39868;53.398;6.564;2022-09-09T07:52:16;18.80;80.70
53962;DHT22;39868;53.398;6.564;2022-09-09T07:54:50;18.80;80.60
53962;DHT22;39868;53.398;6.564;2022-09-09T07:57:18;18.90;80.60
53962;DHT22;39868;53.398;6.564;2022-09-09T07:59:46;18.90;80.60
53962;DHT22;39868;53.398;6.564;2022-09-09T08:02:14;18.90;80.60
53962;DHT22;39868;53.398;6.564;2022-09-09T08:04:42;18.90;80.60
53962;DHT22;39868;53.398;6.564;2022-09-09T08:07:09;19.00;80.60
53962;DHT22;39868;53.398;6.564;2022-09-09T08:09:44;19.10;80.70
53962;DHT22;39868;53.398;6.564;2022-09-09T08:12:18;19.10;80.60
53962;DHT22;39868;53.398;6.564;2022-09-09T08:14:45;19.10;80.60
53962;DHT22;39868;53.398;6.564;2022-09-09T08:17:13;19.20;80.60
53962;DHT22;39868;53.398;6.564;2022-09-09T08:19:41;19.20;80.60
53962;DHT22;39868;53.398;6.564;2022-09-09T08:22:13;19.20;80.50
53962;DHT22;39868;53.398;6.564;2022-09-09T08:24:41;19.30;80.60
53962;DHT22;39868;53.398;6.564;2022-09-09T08:27:08;19.30;80.60
53962;DHT22;39868;53.398;6.564;2022-09-09T08:29:38;19.40;80.60
53962;DHT22;39868;53.398;6.564;2022-09-09T08:32:06;19.40;80.50
53962;DHT22;39868;53.398;6.564;2022-09-09T08:34:34;19.40;80.50
53962;DHT22;39868;53.398;6.564;2022-09-09T08:37:11;19.50;80.50
53962;DHT22;39868;53.398;6.564;2022-09-09T08:39:40;19.50;80.50
53962;DHT22;39868;53.398;6.564;2022-09-09T08:50:28;19.70;80.50
53962;DHT22;39868;53.398;6.564;2022-09-09T08:53:02;19.80;80.50
53962;DHT22;39868;53.398;6.564;2022-09-09T08:55:50;19.80;80.50
53962;DHT22;39868;53.398;6.564;2022-09-09T08:58:26;19.80;80.40
53962;DHT22;39868;53.398;6.564;2022-09-09T09:03:48;19.90;80.40
53962;DHT22;39868;53.398;6.564;2022-09-09T09:06:32;20.00;80.40
53962;DHT22;39868;53.398;6.564;2022-09-09T09:09:12;20.00;80.30
53962;DHT22;39868;53.398;6.564;2022-09-09T09:11:43;20.20;80.50
53962;DHT22;39868;53.398;6.564;2022-09-09T09:14:15;20.20;81.00
53962;DHT22;39868;53.398;6.564;2022-09-09T09:19:15;20.40;80.50
53962;DHT22;39868;53.398;6.564;2022-09-09T09:24:35;20.60;80.50
53962;DHT22;39868;53.398;6.564;2022-09-09T09:27:13;20.70;80.50
53962;DHT22;39868;53.398;6.564;2022-09-09T09:29:47;20.80;80.40
53962;DHT22;39868;53.398;6.564;2022-09-09T09:32:36;20.80;80.30
53962;DHT22;39868;53.398;6.564;2022-09-09T09:35:09;20.90;80.30
53962;DHT22;39868;53.398;6.564;2022-09-09T09:37:39;21.00;80.30
53962;DHT22;39868;53.398;6.564;2022-09-09T09:40:28;21.10;80.20
53962;DHT22;39868;53.398;6.564;2022-09-09T09:42:59;21.10;80.10
53962;DHT22;39868;53.398;6.564;2022-09-09T09:45:32;21.20;80.00
53962;DHT22;39868;53.398;6.564;2022-09-09T09:48:04;21.30;80.00
53962;DHT22;39868;53.398;6.564;2022-09-09T09:50:35;21.30;79.90
53962;DHT22;39868;53.398;6.564;2022-09-09T09:53:32;21.30;79.80
53962;DHT22;39868;53.398;6.564;2022-09-09T09:56:08;21.40;79.70
53962;DHT22;39868;53.398;6.564;2022-09-09T10:03:57;21.60;79.60
53962;DHT22;39868;53.398;6.564;2022-09-09T10:06:29;21.60;79.60
53962;DHT22;39868;53.398;6.564;2022-09-09T10:08:57;21.70;79.50
53962;DHT22;39868;53.398;6.564;2022-09-09T10:11:27;21.70;79.40
53962;DHT22;39868;53.398;6.564;2022-09-09T10:16:53;21.80;79.20
53962;DHT22;39868;53.398;6.564;2022-09-09T10:19:31;21.80;79.00
53962;DHT22;39868;53.398;6.564;2022-09-09T10:30:03;21.80;78.70
53962;DHT22;39868;53.398;6.564;2022-09-09T10:32:37;21.80;78.60
53962;DHT22;39868;53.398;6.564;2022-09-09T10:42:59;21.70;78.40
53962;DHT22;39868;53.398;6.564;2022-09-09T10:45:34;21.70;78.30
53962;DHT22;39868;53.398;6.564;2022-09-09T10:50:43;21.70;78.30
53962;DHT22;39868;53.398;6.564;2022-09-09T10:53:42;21.70;78.30
53962;DHT22;39868;53.398;6.564;2022-09-09T10:56:13;21.70;78.30
53962;DHT22;39868;53.398;6.564;2022-09-09T10:58:49;21.80;78.30
53962;DHT22;39868;53.398;6.564;2022-09-09T11:01:20;21.80;78.30
53962;DHT22;39868;53.398;6.564;2022-09-09T11:04:01;21.90;78.20
53962;DHT22;39868;53.398;6.564;2022-09-09T11:06:32;22.00;78.30
53962;DHT22;39868;53.398;6.564;2022-09-09T11:09:02;22.00;78.20
53962;DHT22;39868;53.398;6.564;2022-09-09T11:11:37;22.10;78.10
53962;DHT22;39868;53.398;6.564;2022-09-09T11:14:14;22.10;77.90
53962;DHT22;39868;53.398;6.564;2022-09-09T11:16:58;22.10;77.80
53962;DHT22;39868;53.398;6.564;2022-09-09T11:19:34;22.20;77.70
53962;DHT22;39868;53.398;6.564;2022-09-09T11:22:04;22.20;77.70
53962;DHT22;39868;53.398;6.564;2022-09-09T11:27:19;22.20;77.60
53962;DHT22;39868;53.398;6.564;2022-09-09T11:30:05;22.30;77.50
53962;DHT22;39868;53.398;6.564;2022-09-09T11:38:03;22.50;77.10
53962;DHT22;39868;53.398;6.564;2022-09-09T11:40:33;22.50;77.10
53962;DHT22;39868;53.398;6.564;2022-09-09T11:43:01;22.60;77.00
53962;DHT22;39868;53.398;6.564;2022-09-09T11:45:31;22.60;76.80
53962;DHT22;39868;53.398;6.564;2022-09-09T11:48:00;22.60;76.60
53962;DHT22;39868;53.398;6.564;2022-09-09T11:50:29;22.70;76.50
53962;DHT22;39868;53.398;6.564;2022-09-09T11:53:04;22.70;76.50
53962;DHT22;39868;53.398;6.564;2022-09-09T11:55:33;22.80;76.50
53962;DHT22;39868;53.398;6.564;2022-09-09T12:00:39;22.90;76.60
53962;DHT22;39868;53.398;6.564;2022-09-09T12:05:54;23.10;76.40
53962;DHT22;39868;53.398;6.564;2022-09-09T12:08:26;23.20;76.20
53962;DHT22;39868;53.398;6.564;2022-09-09T12:10:55;23.30;76.10
53962;DHT22;39868;53.398;6.564;2022-09-09T12:13:24;23.30;75.90
53962;DHT22;39868;53.398;6.564;2022-09-09T12:15:53;23.40;75.70
53962;DHT22;39868;53.398;6.564;2022-09-09T12:18:24;23.40;75.40
53962;DHT22;39868;53.398;6.564;2022-09-09T12:20:54;23.40;75.20
53962;DHT22;39868;53.398;6.564;2022-09-09T12:26:37;23.30;74.80
53962;DHT22;39868;53.398;6.564;2022-09-09T12:31:17;23.20;74.40
53962;DHT22;39868;53.398;6.564;2022-09-09T12:33:47;23.10;74.40
53962;DHT22;39868;53.398;6.564;2022-09-09T12:38:46;23.10;74.20
53962;DHT22;39868;53.398;6.564;2022-09-09T12:43:47;23.00;74.10
53962;DHT22;39868;53.398;6.564;2022-09-09T12:46:36;23.00;74.00
53962;DHT22;39868;53.398;6.564;2022-09-09T12:49:03;23.00;74.00
53962;DHT22;39868;53.398;6.564;2022-09-09T12:51:32;22.90;73.90
53962;DHT22;39868;53.398;6.564;2022-09-09T12:54:00;22.90;74.00
53962;DHT22;39868;53.398;6.564;2022-09-09T12:56:31;22.90;73.90
53962;DHT22;39868;53.398;6.564;2022-09-09T12:58:59;22.90;74.00
53962;DHT22;39868;53.398;6.564;2022-09-09T13:01:28;23.00;74.10
53962;DHT22;39868;53.398;6.564;2022-09-09T13:03:56;23.00;74.10
53962;DHT22;39868;53.398;6.564;2022-09-09T13:06:32;23.00;74.00
53962;DHT22;39868;53.398;6.564;2022-09-09T13:09:01;23.10;74.10
53962;DHT22;39868;53.398;6.564;2022-09-09T13:13:56;23.10;73.70
53962;DHT22;39868;53.398;6.564;2022-09-09T13:18:52;23.10;73.40
53962;DHT22;39868;53.398;6.564;2022-09-09T13:21:20;23.10;73.40
53962;DHT22;39868;53.398;6.564;2022-09-09T13:23:57;23.10;73.40
53962;DHT22;39868;53.398;6.564;2022-09-09T13:26:30;23.10;73.40
53962;DHT22;39868;53.398;6.564;2022-09-09T13:29:16;23.10;73.30
53962;DHT22;39868;53.398;6.564;2022-09-09T13:31:47;23.20;73.40
53962;DHT22;39868;53.398;6.564;2022-09-09T13:34:28;23.30;73.50
53962;DHT22;39868;53.398;6.564;2022-09-09T13:36:58;23.30;73.60
53962;DHT22;39868;53.398;6.564;2022-09-09T13:39:26;23.40;73.40
53962;DHT22;39868;53.398;6.564;2022-09-09T13:41:53;23.50;73.40
53962;DHT22;39868;53.398;6.564;2022-09-09T13:44:21;23.60;73.30
53962;DHT22;39868;53.398;6.564;2022-09-09T13:47:03;23.60;73.20
53962;DHT22;39868;53.398;6.564;2022-09-09T13:49:36;23.60;73.10
53962;DHT22;39868;53.398;6.564;2022-09-09T13:52:05;23.70;73.00
53962;DHT22;39868;53.398;6.564;2022-09-09T13:54:34;23.70;72.90
53962;DHT22;39868;53.398;6.564;2022-09-09T13:57:02;23.80;72.80
53962;DHT22;39868;53.398;6.564;2022-09-09T13:59:31;23.90;72.80
53962;DHT22;39868;53.398;6.564;2022-09-09T14:02:18;23.90;72.70
53962;DHT22;39868;53.398;6.564;2022-09-09T14:04:46;24.00;72.60
53962;DHT22;39868;53.398;6.564;2022-09-09T14:07:15;24.00;72.50
53962;DHT22;39868;53.398;6.564;2022-09-09T14:09:43;24.10;72.40
53962;DHT22;39868;53.398;6.564;2022-09-09T14:12:11;24.10;72.30
53962;DHT22;39868;53.398;6.564;2022-09-09T14:14:38;24.10;72.10
53962;DHT22;39868;53.398;6.564;2022-09-09T14:17:06;24.10;72.00
53962;DHT22;39868;53.398;6.564;2022-09-09T14:19:34;24.10;71.80
53962;DHT22;39868;53.398;6.564;2022-09-09T14:22:01;24.10;71.70
53962;DHT22;39868;53.398;6.564;2022-09-09T14:24:29;24.00;71.50
53962;DHT22;39868;53.398;6.564;2022-09-09T14:26:56;23.90;71.40
53962;DHT22;39868;53.398;6.564;2022-09-09T14:29:23;23.90;71.30
53962;DHT22;39868;53.398;6.564;2022-09-09T14:31:52;23.80;71.10
53962;DHT22;39868;53.398;6.564;2022-09-09T14:34:19;23.70;71.00
53962;DHT22;39868;53.398;6.564;2022-09-09T14:36:47;23.60;71.00
53962;DHT22;39868;53.398;6.564;2022-09-09T14:39:14;23.50;71.00
53962;DHT22;39868;53.398;6.564;2022-09-09T14:41:41;23.50;71.00
53962;DHT22;39868;53.398;6.564;2022-09-09T14:44:09;23.40;71.00
53962;DHT22;39868;53.398;6.564;2022-09-09T14:46:37;23.30;71.10
53962;DHT22;39868;53.398;6.564;2022-09-09T14:49:05;23.30;71.20
53962;DHT22;39868;53.398;6.564;2022-09-09T14:51:32;23.20;71.30
53962;DHT22;39868;53.398;6.564;2022-09-09T14:53:59;23.10;71.30
53962;DHT22;39868;53.398;6.564;2022-09-09T14:56:30;23.00;71.30
53962;DHT22;39868;53.398;6.564;2022-09-09T14:58:58;22.90;71.20
53962;DHT22;39868;53.398;6.564;2022-09-09T15:01:28;22.80;71.20
53962;DHT22;39868;53.398;6.564;2022-09-09T15:03:59;22.80;71.20
53962;DHT22;39868;53.398;6.564;2022-09-09T15:06:28;22.70;71.10
53962;DHT22;39868;53.398;6.564;2022-09-09T15:08:56;22.60;71.20
53962;DHT22;39868;53.398;6.564;2022-09-09T15:11:27;22.50;71.10
53962;DHT22;39868;53.398;6.564;2022-09-09T15:13:55;22.50;71.20
53962;DHT22;39868;53.398;6.564;2022-09-09T15:16:24;22.40;71.20
53962;DHT22;39868;53.398;6.564;2022-09-09T15:18:54;22.30;71.20
53962;DHT22;39868;53.398;6.564;2022-09-09T15:21:22;22.20;71.20
53962;DHT22;39868;53.398;6.564;2022-09-09T15:23:53;22.20;71.30
53962;DHT22;39868;53.398;6.564;2022-09-09T15:26:21;22.10;71.20
53962;DHT22;39868;53.398;6.564;2022-09-09T15:28:50;22.10;71.30
53962;DHT22;39868;53.398;6.564;2022-09-09T15:31:19;22.10;71.50
53962;DHT22;39868;53.398;6.564;2022-09-09T15:33:47;22.20;72.40
53962;DHT22;39868;53.398;6.564;2022-09-09T15:36:17;22.20;71.90
53962;DHT22;39868;53.398;6.564;2022-09-09T15:38:44;22.20;72.00
53962;DHT22;39868;53.398;6.564;2022-09-09T15:41:12;22.20;72.00
53962;DHT22;39868;53.398;6.564;2022-09-09T15:43:58;22.30;72.00
53962;DHT22;39868;53.398;6.564;2022-09-09T15:48:55;22.30;72.00
53962;DHT22;39868;53.398;6.564;2022-09-09T15:51:23;22.40;72.00
53962;DHT22;39868;53.398;6.564;2022-09-09T15:54:10;22.50;72.00
53962;DHT22;39868;53.398;6.564;2022-09-09T15:56:37;22.60;72.10
53962;DHT22;39868;53.398;6.564;2022-09-09T15:59:05;22.60;72.20
53962;DHT22;39868;53.398;6.564;2022-09-09T16:01:33;22.70;72.20
53962;DHT22;39868;53.398;6.564;2022-09-09T16:04:01;22.80;72.30
53962;DHT22;39868;53.398;6.564;2022-09-09T16:06:29;22.80;72.20
53962;DHT22;39868;53.398;6.564;2022-09-09T16:08:57;22.90;72.10
53962;DHT22;39868;53.398;6.564;2022-09-09T16:11:26;22.90;72.00
53962;DHT22;39868;53.398;6.564;2022-09-09T16:13:54;22.90;72.00
53962;DHT22;39868;53.398;6.564;2022-09-09T16:16:26;22.80;71.80
53962;DHT22;39868;53.398;6.564;2022-09-09T16:18:55;22.80;71.80
53962;DHT22;39868;53.398;6.564;2022-09-09T16:21:24;22.80;71.70
53962;DHT22;39868;53.398;6.564;2022-09-09T16:23:52;22.70;71.60
53962;DHT22;39868;53.398;6.564;2022-09-09T16:26:22;22.70;71.60
53962;DHT22;39868;53.398;6.564;2022-09-09T16:28:50;22.70;71.60
53962;DHT22;39868;53.398;6.564;2022-09-09T16:31:21;22.60;71.60
53962;DHT22;39868;53.398;6.564;2022-09-09T16:33:49;22.60;71.70
53962;DHT22;39868;53.398;6.564;2022-09-09T16:36:21;22.50;71.80
53962;DHT22;39868;53.398;6.564;2022-09-09T16:38:53;22.50;71.80
53962;DHT22;39868;53.398;6.564;2022-09-09T16:41:24;22.50;71.90
53962;DHT22;39868;53.398;6.564;2022-09-09T16:43:55;22.50;72.00
53962;DHT22;39868;53.398;6.564;2022-09-09T16:46:24;22.40;72.00
53962;DHT22;39868;53.398;6.564;2022-09-09T16:48:52;22.40;72.10
53962;DHT22;39868;53.398;6.564;2022-09-09T16:51:24;22.40;72.10
53962;DHT22;39868;53.398;6.564;2022-09-09T16:53:53;22.30;72.10
53962;DHT22;39868;53.398;6.564;2022-09-09T16:56:22;22.30;72.20
53962;DHT22;39868;53.398;6.564;2022-09-09T16:58:54;22.30;72.30
53962;DHT22;39868;53.398;6.564;2022-09-09T17:01:25;22.30;72.90
53962;DHT22;39868;53.398;6.564;2022-09-09T17:03:53;22.20;72.30
53962;DHT22;39868;53.398;6.564;2022-09-09T17:06:27;22.20;72.30
53962;DHT22;39868;53.398;6.564;2022-09-09T17:08:55;22.20;72.30
53962;DHT22;39868;53.398;6.564;2022-09-09T17:11:23;22.20;72.30
53962;DHT22;39868;53.398;6.564;2022-09-09T17:13:50;22.10;72.20
53962;DHT22;39868;53.398;6.564;2022-09-09T17:16:19;22.10;72.20
53962;DHT22;39868;53.398;6.564;2022-09-09T17:18:51;22.10;72.20
53962;DHT22;39868;53.398;6.564;2022-09-09T17:21:20;22.10;72.20
53962;DHT22;39868;53.398;6.564;2022-09-09T17:23:48;22.00;72.10
53962;DHT22;39868;53.398;6.564;2022-09-09T17:26:17;22.00;72.10
53962;DHT22;39868;53.398;6.564;2022-09-09T17:28:46;21.90;72.10
53962;DHT22;39868;53.398;6.564;2022-09-09T17:31:15;21.90;72.10
53962;DHT22;39868;53.398;6.564;2022-09-09T17:33:44;21.90;72.10
53962;DHT22;39868;53.398;6.564;2022-09-09T17:36:19;21.90;72.10
53962;DHT22;39868;53.398;6.564;2022-09-09T17:38:47;21.80;72.10
53962;DHT22;39868;53.398;6.564;2022-09-09T17:41:16;21.80;72.10
53962;DHT22;39868;53.398;6.564;2022-09-09T17:43:44;21.70;72.10
53962;DHT22;39868;53.398;6.564;2022-09-09T17:46:20;21.70;72.20
53962;DHT22;39868;53.398;6.564;2022-09-09T17:48:49;21.70;72.20
53962;DHT22;39868;53.398;6.564;2022-09-09T17:51:18;21.70;72.20
53962;DHT22;39868;53.398;6.564;2022-09-09T17:53:51;21.60;72.20
53962;DHT22;39868;53.398;6.564;2022-09-09T17:56:22;21.60;72.30
53962;DHT22;39868;53.398;6.564;2022-09-09T17:58:51;21.50;72.30
53962;DHT22;39868;53.398;6.564;2022-09-09T18:01:21;21.50;72.30